Terminal Aerodrome Forecast
Issued by NWS

Home | Current Version | Previous Version | Text Only | Print | Product List | Glossary On
Versions: 1 2 3 4 5 6 7 8 9 10 11 12 13 14 15 16 17 18
000
FTUS43 KILX 031300 AAA
TAFCMI
TAF AMD
KCMI 031347Z 0314/0412 15014KT 3SM -FZDZ BR BKN006 OVC015
      TEMPO 0314/0316 1SM -FZRA BR
     FM031600 19014G22KT 3SM -RA BR BKN006 OVC012
     FM032300 24014G22KT 4SM -DZ BR SCT006 OVC015
     FM040400 29016KT P6SM OVC020=

USA.gov is the U.S. government's official web portal to all federal, state and local government web resources and services.